Main page
METAR-TAF:

METAR-TAF

Airports :

Basra International Airport

Basra, Iraq

latitude: 30-32-56N, longitude: 47-39-45E, elevation: 1 m

Current weather observation

The report was made 2 hours and 57 minutes ago, at 03:00 UTC
Wind 10 kt from the West/Northwest
Temperature 32°C
Humidity 24%
Pressure 997 hPa
Visibility 10 km or more
no clouds below 1500 m and no cumulonimbus

METAR: ORMM 180300Z 29010KT CAVOK 32/09 Q0997 NOSIG

Time: 08:57 (05:57 UTC)

Forecast

The report was made 57 minutes ago, at 05:00 UTC
Forecast valid from 18 at 06 UTC to 19 at 06 UTC
Wind 12 kt from the West/Northwest
Visibility 10 km or more
no clouds below 1500 m and no cumulonimbus
Temporary
from 18 at 07 UTC to 18 at 14 UTC
Visibility: 8000 m

TAF: ORMM 180500Z 1806/1906 30012KT CAVOK TEMPO 1807/1814 G25KT 8000 NSC

Weather observations and forecasts of more than 4000 airports (METAR and TAF reports).

The available stations are represented by yellow and red dots on the map.

Hover mouse over dot to see the name of the station.

Then click to see weather observations and forecasts.

To change the map : click on the green buttons with a black cross to zoom in, on the green button with a dash to zoom out, or on the green arrows for adjacent maps.


METAR-TAF: